Time;durP1;ratioP1;P1;durP2;ratioP2;P2;SDS_P1;SDS_P2;PMS_P1;PMS_P2;Temp;Humidity;BMP_temperature;BMP_pressure;BME280_temperature;BME280_humidity;BME280_pressure;Samples;Min_cycle;Max_cycle;Signal;HPM_P1;HPM_P2
2022/04/19 00:01:11;;;;;;;9.97;9.40;;;6.20;16.30;;;;;;5093011;28;20225;-69
2022/04/19 00:03:37;;;;;;;10.00;9.50;;;6.20;16.20;;;;;;5094147;28;20523;-69
2022/04/19 00:06:03;;;;;;;9.85;9.27;;;6.20;16.00;;;;;;5093559;28;20258;-69
2022/04/19 00:08:29;;;;;;;10.00;9.50;;;6.20;15.70;;;;;;5093818;28;20177;-69
2022/04/19 00:10:55;;;;;;;11.13;10.43;;;6.30;15.70;;;;;;5094246;28;20194;-69
2022/04/19 00:13:21;;;;;;;10.67;9.97;;;6.20;15.80;;;;;;5093966;28;20180;-69
2022/04/19 00:15:47;;;;;;;9.57;9.07;;;6.20;15.80;;;;;;5093882;28;20202;-69
2022/04/19 00:18:14;;;;;;;9.70;9.10;;;6.10;16.10;;;;;;5093537;28;20189;-69
2022/04/19 00:20:42;;;;;;;10.02;9.52;;;6.10;16.30;;;;;;5093730;28;20197;-69
2022/04/19 00:23:15;;;;;;;10.63;9.85;;;6.10;16.60;;;;;;5093704;28;20629;-69
2022/04/19 00:25:46;;;;;;;9.80;9.25;;;6.10;16.50;;;;;;5093478;28;20205;-69
2022/04/19 00:28:13;;;;;;;10.20;9.70;;;6.00;16.10;;;;;;5093139;28;20234;-69
2022/04/19 00:30:39;;;;;;;9.90;9.40;;;6.00;16.80;;;;;;5093471;28;20208;-69
2022/04/19 00:33:05;;;;;;;10.47;9.97;;;5.90;16.40;;;;;;5093685;28;20173;-69
2022/04/19 00:35:31;;;;;;;9.10;8.70;;;5.80;16.40;;;;;;5093542;28;20197;-69
2022/04/19 00:37:56;;;;;;;9.47;8.97;;;5.80;16.40;;;;;;5093590;28;20208;-69
2022/04/19 00:40:22;;;;;;;8.77;8.37;;;5.80;16.40;;;;;;5093090;28;20204;-69
2022/04/19 00:42:49;;;;;;;10.00;9.50;;;5.70;16.40;;;;;;5093139;28;20177;-69
2022/04/19 00:45:15;;;;;;;9.48;9.07;;;5.60;16.30;;;;;;5093321;28;20197;-69
2022/04/19 00:47:40;;;;;;;9.53;9.13;;;5.60;16.30;;;;;;5093064;28;20169;-70
2022/04/19 00:50:07;;;;;;;9.73;9.30;;;5.60;16.50;;;;;;5093085;28;20476;-70
2022/04/19 00:52:35;;;;;;;9.35;8.85;;;5.60;16.90;;;;;;5093022;28;20173;-70
2022/04/19 00:55:01;;;;;;;9.15;8.68;;;5.60;16.50;;;;;;5093207;28;20206;-69
2022/04/19 00:57:27;;;;;;;9.38;8.93;;;5.60;16.90;;;;;;5092593;28;20208;-70
2022/04/19 00:59:55;;;;;;;9.75;9.05;;;5.60;16.70;;;;;;5092905;28;20207;-70
2022/04/19 01:02:21;;;;;;;8.73;8.32;;;5.60;16.60;;;;;;5093029;28;20170;-71
2022/04/19 01:04:47;;;;;;;10.60;9.80;;;5.60;16.90;;;;;;5092299;28;20275;-70
2022/04/19 01:07:13;;;;;;;9.70;9.20;;;5.60;16.80;;;;;;5092606;28;20189;-70
2022/04/19 01:09:38;;;;;;;9.70;9.20;;;5.50;16.90;;;;;;5091614;28;20477;-70
2022/04/19 01:14:50;;;;;;;9.50;8.85;;;5.50;17.00;;;;;;5092891;28;20188;-70
2022/04/19 01:17:16;;;;;;;9.10;8.48;;;5.50;17.00;;;;;;5092322;28;20216;-70
2022/04/19 01:19:43;;;;;;;9.70;9.15;;;5.50;16.60;;;;;;5092557;28;20718;-70
2022/04/19 01:22:12;;;;;;;9.05;8.65;;;5.50;16.50;;;;;;5092592;28;20197;-70
2022/04/19 01:24:39;;;;;;;9.77;9.27;;;5.50;16.40;;;;;;5092590;28;20284;-70
2022/04/19 01:27:05;;;;;;;9.50;9.00;;;5.40;16.60;;;;;;5092291;28;20188;-70
2022/04/19 01:29:33;;;;;;;9.40;8.90;;;5.40;16.80;;;;;;5092312;28;20181;-70
2022/04/19 01:32:02;;;;;;;9.85;9.25;;;5.50;16.70;;;;;;5100238;22;20237;-70
2022/04/19 01:34:27;;;;;;;9.85;9.25;;;5.50;17.00;;;;;;5071171;28;20268;-74
2022/04/19 01:36:53;;;;;;;9.20;8.70;;;5.50;17.20;;;;;;5071693;28;20259;-70
2022/04/19 01:40:16;;;;;;;8.63;8.23;;;5.40;17.20;;;;;;5072220;28;20623;-70
2022/04/19 01:42:05;;;;;;;9.80;9.30;;;5.50;17.20;;;;;;5071712;28;20670;-70
2022/04/19 01:44:33;;;;;;;8.75;8.30;;;5.50;17.40;;;;;;5071831;28;20294;-70
2022/04/19 01:47:00;;;;;;;9.27;8.68;;;5.40;17.50;;;;;;5071805;28;20222;-69
2022/04/19 01:49:26;;;;;;;8.63;8.05;;;5.30;17.50;;;;;;5072261;28;20251;-71
2022/04/19 01:51:51;;;;;;;8.43;7.93;;;5.30;18.00;;;;;;5071999;28;20236;-71
2022/04/19 01:54:17;;;;;;;8.40;8.00;;;5.30;17.90;;;;;;5071601;28;20212;-72
2022/04/19 01:56:44;;;;;;;8.90;8.30;;;5.30;17.90;;;;;;5071659;28;20182;-71
2022/04/19 01:59:09;;;;;;;8.73;8.23;;;5.30;18.20;;;;;;5070578;28;20173;-71
2022/04/19 02:01:35;;;;;;;9.00;8.50;;;5.20;18.20;;;;;;5071871;28;20189;-71
2022/04/19 02:04:00;;;;;;;9.50;8.80;;;5.20;18.10;;;;;;5071890;28;20208;-70
2022/04/19 02:06:27;;;;;;;8.33;7.93;;;5.20;18.10;;;;;;5071060;28;20305;-70
2022/04/19 02:08:53;;;;;;;8.57;8.18;;;5.10;17.70;;;;;;5071968;28;20166;-70
2022/04/19 02:11:18;;;;;;;9.00;8.50;;;5.10;17.90;;;;;;5072239;28;20189;-71
2022/04/19 02:13:43;;;;;;;9.37;8.87;;;5.00;18.10;;;;;;5071710;28;20209;-71
2022/04/19 02:16:09;;;;;;;8.17;7.77;;;5.00;18.20;;;;;;5071602;28;20556;-71
2022/04/19 02:18:34;;;;;;;8.47;8.07;;;4.90;18.30;;;;;;5070213;28;20726;-70
2022/04/19 02:21:00;;;;;;;9.20;8.50;;;4.90;18.30;;;;;;5071595;28;20281;-71
2022/04/19 02:23:26;;;;;;;8.60;8.13;;;4.90;18.40;;;;;;5071797;28;20181;-72
2022/04/19 02:25:54;;;;;;;8.95;8.45;;;4.80;18.50;;;;;;5071332;28;20194;-72
2022/04/19 02:28:21;;;;;;;9.15;8.65;;;4.80;18.60;;;;;;5071342;28;20204;-71
2022/04/19 02:30:46;;;;;;;10.00;9.35;;;4.80;18.90;;;;;;5071224;28;20228;-72
2022/04/19 02:33:12;;;;;;;8.53;7.73;;;4.70;18.60;;;;;;5071712;28;20178;-73
2022/04/19 02:35:38;;;;;;;8.23;7.83;;;4.70;19.10;;;;;;5071725;28;20554;-71
2022/04/19 02:38:03;;;;;;;9.43;8.83;;;4.60;19.00;;;;;;5069808;28;20201;-71
2022/04/19 02:40:29;;;;;;;9.77;9.27;;;4.60;19.30;;;;;;5071526;28;20250;-71
2022/04/19 02:42:55;;;;;;;9.13;8.63;;;4.50;19.60;;;;;;5070426;28;20178;-72
2022/04/19 02:45:22;;;;;;;8.60;8.10;;;4.60;19.90;;;;;;5071512;28;20212;-71
2022/04/19 02:47:51;;;;;;;9.40;8.80;;;4.60;19.50;;;;;;5071604;28;20174;-71
2022/04/19 02:50:17;;;;;;;8.45;7.95;;;4.50;19.80;;;;;;5074460;28;20192;-71
2022/04/19 02:52:43;;;;;;;8.70;8.00;;;4.50;19.80;;;;;;5077805;28;20706;-71
2022/04/19 02:55:08;;;;;;;8.60;8.10;;;4.40;19.80;;;;;;5082678;28;20193;-73
2022/04/19 02:57:34;;;;;;;8.43;8.03;;;4.30;19.70;;;;;;5087048;28;20190;-71
2022/04/19 03:00:00;;;;;;;9.10;8.60;;;4.20;19.60;;;;;;5085961;28;20654;-71
2022/04/19 03:02:26;;;;;;;9.35;8.70;;;4.30;19.70;;;;;;5076223;28;20581;-70
2022/04/19 03:04:51;;;;;;;8.20;7.80;;;4.30;19.70;;;;;;5075809;28;20198;-71
2022/04/19 03:07:17;;;;;;;8.33;7.93;;;4.30;19.50;;;;;;5075196;28;20189;-71
2022/04/19 03:09:43;;;;;;;9.20;8.70;;;4.30;19.70;;;;;;5074838;28;20185;-71
2022/04/19 03:12:14;;;;;;;8.80;8.30;;;4.40;19.80;;;;;;5075016;28;20592;-71
2022/04/19 03:14:39;;;;;;;8.60;8.10;;;4.30;19.70;;;;;;5074847;28;20174;-71
2022/04/19 03:17:06;;;;;;;9.50;8.90;;;4.30;19.70;;;;;;5074724;28;20189;-71
2022/04/19 03:19:32;;;;;;;9.10;8.57;;;4.30;19.70;;;;;;5073850;28;20212;-71
2022/04/19 03:21:57;;;;;;;10.50;9.95;;;4.30;19.70;;;;;;5073458;28;20193;-72
2022/04/19 03:27:41;;;;;;;8.10;7.70;;;4.20;19.70;;;;;;5074734;28;20224;-70
2022/04/19 03:30:08;;;;;;;8.88;8.38;;;4.10;19.90;;;;;;5074915;28;20220;-71
2022/04/19 03:32:33;;;;;;;7.85;7.45;;;4.00;20.20;;;;;;5074560;28;20217;-72
2022/04/19 03:34:59;;;;;;;8.30;7.80;;;4.00;20.30;;;;;;5074409;28;20218;-70
2022/04/19 03:37:24;;;;;;;8.30;7.77;;;4.00;20.40;;;;;;5074438;28;20181;-70
2022/04/19 03:39:50;;;;;;;9.53;8.93;;;3.90;20.50;;;;;;5074526;28;20184;-70
2022/04/19 03:42:16;;;;;;;7.93;7.53;;;3.90;20.50;;;;;;5074468;28;20205;-72
2022/04/19 03:44:41;;;;;;;8.67;8.17;;;3.90;20.60;;;;;;5074355;28;20686;-70
2022/04/19 03:47:07;;;;;;;8.30;7.80;;;3.80;20.40;;;;;;5072683;28;20639;-70
2022/04/19 03:49:36;;;;;;;9.53;8.90;;;3.80;20.90;;;;;;5074256;28;20174;-70
2022/04/19 03:52:03;;;;;;;8.32;7.88;;;3.80;20.80;;;;;;5074202;28;20428;-72
2022/04/19 03:54:29;;;;;;;9.18;8.63;;;3.80;20.70;;;;;;5074430;28;20634;-71
2022/04/19 03:56:55;;;;;;;9.00;8.40;;;3.70;21.20;;;;;;5074021;28;20178;-71
2022/04/19 03:59:22;;;;;;;8.43;7.93;;;3.70;21.20;;;;;;5073456;28;20510;-71
2022/04/19 04:01:48;;;;;;;8.27;7.82;;;3.60;21.20;;;;;;5073439;28;20206;-71
2022/04/19 04:04:13;;;;;;;9.03;8.27;;;3.60;21.20;;;;;;5073176;28;20174;-71
2022/04/19 04:06:39;;;;;;;8.13;7.63;;;3.60;21.30;;;;;;5072592;28;20271;-71
2022/04/19 04:09:04;;;;;;;7.70;7.30;;;3.60;21.20;;;;;;5074207;28;20222;-71
2022/04/19 04:11:30;;;;;;;8.50;8.00;;;3.60;21.30;;;;;;5073688;28;20229;-71
2022/04/19 04:13:56;;;;;;;8.23;7.57;;;3.50;21.30;;;;;;5074226;28;20638;-71
2022/04/19 04:16:22;;;;;;;8.73;8.23;;;3.50;21.30;;;;;;5073666;28;20643;-73
2022/04/19 04:18:47;;;;;;;9.30;8.70;;;3.50;21.20;;;;;;5073539;28;20695;-71
2022/04/19 04:21:13;;;;;;;8.50;8.00;;;3.50;21.10;;;;;;5072499;28;20208;-71
2022/04/19 04:23:38;;;;;;;7.83;7.40;;;3.60;21.20;;;;;;5073551;28;20182;-70
2022/04/19 04:26:04;;;;;;;7.93;7.43;;;3.50;21.20;;;;;;5072175;28;20259;-71
2022/04/19 04:28:29;;;;;;;8.93;8.20;;;3.50;21.30;;;;;;5073179;28;20268;-71
2022/04/19 04:30:55;;;;;;;9.50;8.80;;;3.50;21.20;;;;;;5073494;28;20666;-71
2022/04/19 04:33:21;;;;;;;8.47;7.97;;;3.50;21.40;;;;;;5072262;28;20428;-71
2022/04/19 04:35:47;;;;;;;8.93;8.32;;;3.50;21.30;;;;;;5069615;28;20178;-72
2022/04/19 04:38:13;;;;;;;9.00;8.37;;;3.60;21.20;;;;;;5072902;28;20193;-70
2022/04/19 04:40:39;;;;;;;8.63;8.02;;;3.50;21.30;;;;;;5073333;28;20309;-71
2022/04/19 04:43:05;;;;;;;9.27;8.43;;;3.50;21.40;;;;;;5073055;28;20262;-70
2022/04/19 04:45:30;;;;;;;9.53;8.83;;;3.60;21.20;;;;;;5072820;28;20518;-70
2022/04/19 04:50:40;;;;;;;8.65;8.05;;;3.70;21.10;;;;;;5073231;28;20204;-71
2022/04/19 04:53:05;;;;;;;9.10;8.57;;;3.90;20.70;;;;;;5072658;28;20182;-72
2022/04/19 04:55:31;;;;;;;9.60;8.80;;;4.00;20.50;;;;;;5072777;28;20178;-66
2022/04/19 04:57:59;;;;;;;9.87;9.17;;;4.00;20.50;;;;;;5072779;28;20308;-68
2022/04/19 05:00:28;;;;;;;8.93;8.32;;;4.10;20.20;;;;;;5072411;28;20178;-67
2022/04/19 05:02:54;;;;;;;10.52;9.57;;;4.20;20.00;;;;;;5071414;28;20186;-67
2022/04/19 05:05:20;;;;;;;9.80;9.05;;;4.30;19.70;;;;;;5072444;28;20198;-70
2022/04/19 05:07:46;;;;;;;8.60;8.10;;;4.40;19.80;;;;;;5070784;28;20185;-70
2022/04/19 05:10:11;;;;;;;8.87;8.27;;;4.50;19.80;;;;;;5055196;28;20506;-68
2022/04/19 05:12:37;;;;;;;9.47;8.73;;;4.60;19.70;;;;;;5071600;28;20265;-68
2022/04/19 05:15:04;;;;;;;10.27;9.57;;;4.80;19.00;;;;;;5071185;28;20208;-68
2022/04/19 05:17:29;;;;;;;9.80;9.13;;;4.90;18.70;;;;;;5072048;28;20583;-68
2022/04/19 05:19:55;;;;;;;9.33;8.73;;;5.00;18.50;;;;;;5072541;28;20174;-68
2022/04/19 05:22:21;;;;;;;11.10;10.30;;;5.10;18.50;;;;;;5071149;28;20494;-68
2022/04/19 05:24:47;;;;;;;11.27;10.27;;;5.20;18.30;;;;;;5072159;28;20240;-68
2022/04/19 05:27:13;;;;;;;11.37;10.47;;;5.20;18.00;;;;;;5070479;28;20480;-68
2022/04/19 05:29:38;;;;;;;10.57;9.83;;;5.40;18.30;;;;;;5071788;28;20231;-69
2022/04/19 05:32:05;;;;;;;10.27;9.40;;;5.50;18.50;;;;;;5072176;28;20734;-69
2022/04/19 05:34:31;;;;;;;11.13;10.32;;;5.80;19.00;;;;;;5072554;28;20242;-68
2022/04/19 05:36:56;;;;;;;10.30;9.80;;;6.40;17.60;;;;;;5072002;28;20173;-67
2022/04/19 05:39:22;;;;;;;12.30;11.60;;;7.20;16.80;;;;;;5071149;28;20411;-67
2022/04/19 05:41:48;;;;;;;13.30;12.50;;;8.00;14.00;;;;;;5071978;28;20201;-68
2022/04/19 05:44:13;;;;;;;13.13;12.40;;;8.80;13.30;;;;;;5072150;28;20174;-68
2022/04/19 05:46:39;;;;;;;13.33;12.63;;;9.70;13.20;;;;;;5071551;28;20215;-66
2022/04/19 05:49:05;;;;;;;14.20;13.47;;;10.80;10.20;;;;;;5072156;28;20184;-68
2022/04/19 05:51:31;;;;;;;14.63;14.03;;;12.00;8.80;;;;;;5063938;28;20198;-68
2022/04/19 05:53:57;;;;;;;15.17;14.20;;;13.10;7.40;;;;;;5062373;28;20177;-68
2022/04/19 05:56:22;;;;;;;14.90;14.13;;;14.10;4.40;;;;;;5051856;28;20508;-68
2022/04/19 05:58:48;;;;;;;15.20;14.30;;;14.90;4.10;;;;;;5068543;28;20182;-68
2022/04/19 06:01:13;;;;;;;14.60;13.90;;;15.40;3.80;;;;;;5071856;28;20281;-68
2022/04/19 06:06:23;;;;;;;16.13;15.23;;;15.80;1.80;;;;;;5071225;28;20332;-69
2022/04/19 06:08:53;;;;;;;16.30;15.40;;;16.10;1.60;;;;;;5071635;28;20913;-68
2022/04/19 06:11:19;;;;;;;15.27;14.60;;;16.40;1.00;;;;;;5049751;28;20265;-68
2022/04/19 06:13:45;;;;;;;16.03;15.17;;;16.30;1.00;;;;;;5050207;28;20447;-67
2022/04/19 06:16:11;;;;;;;16.17;15.17;;;16.00;1.00;;;;;;5055752;28;20447;-68
2022/04/19 06:18:37;;;;;;;16.20;15.10;;;15.80;1.00;;;;;;5054778;28;20186;-68
2022/04/19 06:21:04;;;;;;;15.87;14.97;;;15.80;1.00;;;;;;5052276;28;20549;-68
2022/04/19 06:23:30;;;;;;;14.93;14.33;;;16.00;1.00;;;;;;5053329;28;20936;-68
2022/04/19 06:25:56;;;;;;;15.50;14.77;;;16.30;1.00;;;;;;5055911;28;20452;-68
2022/04/19 06:28:22;;;;;;;16.37;15.57;;;16.20;1.00;;;;;;5060215;28;21001;-69
2022/04/19 06:30:47;;;;;;;15.40;14.50;;;16.50;1.00;;;;;;5074129;28;20216;-67
2022/04/19 06:33:13;;;;;;;15.87;15.07;;;17.10;1.00;;;;;;5072882;28;20543;-68
2022/04/19 06:35:39;;;;;;;16.60;15.80;;;17.80;1.00;;;;;;5064621;28;20186;-70
2022/04/19 06:38:04;;;;;;;16.43;15.50;;;18.60;1.00;;;;;;5071209;28;20205;-68
2022/04/19 06:40:30;;;;;;;15.93;15.00;;;19.30;1.00;;;;;;5070955;28;20205;-67
2022/04/19 06:42:57;;;;;;;15.10;14.40;;;19.90;1.00;;;;;;5071365;28;20231;-70
2022/04/19 06:45:23;;;;;;;22.30;20.60;;;20.20;1.00;;;;;;5070009;28;20236;-69
2022/04/19 06:47:59;;;;;;;19.00;17.80;;;20.30;1.00;;;;;;5070564;28;20408;-68
2022/04/19 06:50:25;;;;;;;16.13;15.33;;;20.50;1.00;;;;;;5050818;28;20432;-68
2022/04/19 06:52:52;;;;;;;16.43;15.70;;;20.70;1.00;;;;;;5049705;28;20450;-71
2022/04/19 06:55:18;;;;;;;17.60;16.80;;;21.10;1.00;;;;;;5051268;28;20178;-68
2022/04/19 06:57:44;;;;;;;16.20;15.33;;;21.20;1.00;;;;;;5050679;28;20428;-69
2022/04/19 07:00:09;;;;;;;17.60;16.70;;;21.00;1.00;;;;;;5071380;28;20415;-71
2022/04/19 07:02:35;;;;;;;18.30;17.10;;;20.60;1.00;;;;;;5069129;28;20181;-68
2022/04/19 07:05:01;;;;;;;17.07;16.37;;;20.20;1.00;;;;;;5068944;28;20689;-68
2022/04/19 07:07:27;;;;;;;17.87;16.83;;;19.60;1.00;;;;;;5070673;28;20510;-71
2022/04/19 07:09:52;;;;;;;16.90;16.20;;;19.30;1.00;;;;;;5067175;28;20179;-68
2022/04/19 07:12:19;;;;;;;17.17;16.17;;;18.50;1.00;;;;;;5055590;28;20276;-68
2022/04/19 07:14:45;;;;;;;16.50;15.60;;;18.00;1.00;;;;;;5069193;28;20193;-70
2022/04/19 07:17:10;;;;;;;16.33;15.53;;;17.80;1.00;;;;;;5069089;28;20491;-68
2022/04/19 07:27:48;;;;;;;16.80;16.00;;;18.50;1.00;;;;;;5074369;28;20908;-71
2022/04/19 07:30:16;;;;;;;16.60;15.63;;;18.60;1.00;;;;;;5073470;28;20462;-70
2022/04/19 07:32:42;;;;;;;16.53;15.60;;;19.00;1.00;;;;;;5074799;28;20182;-67
2022/04/19 07:35:08;;;;;;;16.67;15.87;;;19.40;1.00;;;;;;5073581;28;20412;-67
2022/04/19 07:37:34;;;;;;;16.33;15.43;;;20.00;1.00;;;;;;5074406;28;20434;-67
2022/04/19 07:39:59;;;;;;;16.67;15.80;;;20.60;1.00;;;;;;5074343;28;20633;-67
2022/04/19 07:42:25;;;;;;;15.43;14.70;;;21.00;1.00;;;;;;5074237;28;20232;-67
2022/04/19 07:44:50;;;;;;;16.00;15.30;;;21.20;1.00;;;;;;5074547;28;20201;-68
2022/04/19 07:47:17;;;;;;;16.07;15.23;;;20.80;1.00;;;;;;5074646;28;20174;-68
2022/04/19 07:49:43;;;;;;;16.20;15.50;;;21.10;1.00;;;;;;5074435;28;20169;-68
2022/04/19 07:52:09;;;;;;;16.40;15.70;;;21.50;1.00;;;;;;5074022;28;20531;-68
2022/04/19 07:54:36;;;;;;;15.63;14.93;;;21.80;1.00;;;;;;5074243;28;20166;-68
2022/04/19 07:57:01;;;;;;;14.97;14.13;;;21.60;1.00;;;;;;5073804;28;20481;-68
2022/04/19 07:59:27;;;;;;;18.00;16.17;;;21.80;1.00;;;;;;5074175;28;20768;-68
2022/04/19 08:01:52;;;;;;;15.57;14.87;;;22.10;1.00;;;;;;5073966;28;20201;-68
2022/04/19 08:04:18;;;;;;;15.97;15.20;;;22.40;1.00;;;;;;5074153;28;20651;-68
2022/04/19 08:06:43;;;;;;;14.93;14.33;;;22.50;1.00;;;;;;5073646;28;20280;-68
2022/04/19 08:09:09;;;;;;;16.13;15.43;;;22.40;1.00;;;;;;5073432;28;20178;-67
2022/04/19 08:11:34;;;;;;;16.73;15.90;;;22.10;1.00;;;;;;5073751;28;20276;-68
2022/04/19 08:14:00;;;;;;;17.07;16.13;;;21.90;1.00;;;;;;5073860;28;20181;-68
2022/04/19 08:16:25;;;;;;;15.97;15.27;;;22.10;1.00;;;;;;5073684;28;20182;-68
2022/04/19 08:18:51;;;;;;;17.37;16.57;;;21.80;1.00;;;;;;5073784;28;20182;-68
2022/04/19 08:21:17;;;;;;;15.90;15.30;;;21.40;1.00;;;;;;5073697;28;20292;-68
2022/04/19 08:23:42;;;;;;;15.47;14.70;;;21.20;1.00;;;;;;5073542;28;20178;-71
2022/04/19 08:26:11;;;;;;;17.30;16.30;;;21.00;1.00;;;;;;5073661;28;20233;-73
2022/04/19 08:28:36;;;;;;;16.97;16.17;;;20.90;1.00;;;;;;5073428;28;20174;-69
2022/04/19 08:31:04;;;;;;;17.87;17.03;;;20.80;1.00;;;;;;5073514;28;20466;-69
2022/04/19 08:33:30;;;;;;;17.00;16.23;;;20.60;1.00;;;;;;5073866;28;20540;-69
2022/04/19 08:35:56;;;;;;;17.37;16.47;;;20.40;1.00;;;;;;5074912;28;20420;-72
2022/04/19 08:38:22;;;;;;;16.53;15.57;;;19.20;1.00;;;;;;5073688;28;20268;-72
2022/04/19 08:40:51;;;;;;;16.33;15.33;;;19.10;1.00;;;;;;5073950;28;20293;-73
2022/04/19 08:43:16;;;;;;;17.83;16.83;;;19.00;1.00;;;;;;5076585;28;20420;-72
2022/04/19 08:45:43;;;;;;;17.83;16.83;;;18.90;1.00;;;;;;5078191;28;20521;-72
2022/04/19 08:48:10;;;;;;;16.00;15.20;;;18.80;1.00;;;;;;5080153;28;20178;-73
2022/04/19 08:50:36;;;;;;;16.27;15.57;;;18.60;1.00;;;;;;5085339;28;20443;-72
2022/04/19 08:58:32;;;;;;;16.00;15.30;;;17.40;1.00;;;;;;5086251;28;20431;-73
2022/04/19 09:00:57;;;;;;;16.37;15.57;;;17.30;1.00;;;;;;5084025;28;20531;-72
2022/04/19 09:03:23;;;;;;;17.90;16.80;;;17.20;1.00;;;;;;5078180;28;20209;-72
2022/04/19 09:05:52;;;;;;;15.90;15.10;;;17.10;1.00;;;;;;5073080;28;20237;-72
2022/04/19 09:08:19;;;;;;;17.23;16.40;;;17.00;1.00;;;;;;5072851;28;20232;-71
2022/04/19 09:10:45;;;;;;;17.10;16.03;;;16.00;1.00;;;;;;5073091;28;20507;-70
2022/04/19 09:13:11;;;;;;;16.07;15.27;;;15.60;1.00;;;;;;5073241;28;20408;-70
2022/04/19 09:15:42;;;;;;;15.33;14.67;;;15.40;1.00;;;;;;5072655;28;20932;-70
2022/04/19 09:18:24;;;;;;;17.20;16.20;;;15.00;1.00;;;;;;5072381;28;20913;-70
2022/04/19 09:20:53;;;;;;;16.80;15.90;;;15.10;1.00;;;;;;5072830;28;20444;-71
2022/04/19 09:23:20;;;;;;;16.97;15.87;;;15.40;1.00;;;;;;5072852;28;20958;-72
2022/04/19 09:25:45;;;;;;;15.87;15.13;;;15.60;1.00;;;;;;5072447;28;20470;-72
2022/04/19 09:28:16;;;;;;;15.40;14.70;;;15.80;1.00;;;;;;5072686;28;20908;-72
2022/04/19 09:30:43;;;;;;;17.40;16.50;;;15.90;1.00;;;;;;5074318;28;20612;-73
2022/04/19 09:33:10;;;;;;;15.50;14.43;;;16.10;1.00;;;;;;5072496;28;20809;-71
2022/04/19 09:35:44;;;;;;;15.03;14.33;;;16.20;1.00;;;;;;5072802;28;20568;-71
2022/04/19 09:38:11;;;;;;;15.90;15.10;;;16.10;1.00;;;;;;5072320;28;21005;-71
2022/04/19 09:40:37;;;;;;;16.90;16.00;;;16.10;1.00;;;;;;5072422;28;20453;-72
2022/04/19 09:43:23;;;;;;;15.33;14.43;;;15.90;1.00;;;;;;5072433;28;20420;-72
2022/04/19 09:45:52;;;;;;;16.73;15.80;;;15.80;1.00;;;;;;5072226;28;20462;-72
2022/04/19 09:48:26;;;;;;;15.87;15.17;;;15.50;1.00;;;;;;5071983;28;20419;-72
2022/04/19 09:51:03;;;;;;;14.80;14.20;;;15.50;1.00;;;;;;5072227;28;20437;-72
2022/04/19 09:53:40;;;;;;;15.00;14.30;;;15.40;1.00;;;;;;5072239;28;20884;-72
2022/04/19 09:56:17;;;;;;;14.57;13.90;;;15.60;1.00;;;;;;5072168;28;20411;-72
2022/04/19 09:58:44;;;;;;;15.83;14.93;;;15.70;1.00;;;;;;5071301;28;20415;-71
2022/04/19 10:08:10;;;;;;;15.10;14.50;;;15.80;1.00;;;;;;5072276;28;20804;-72
2022/04/19 10:09:31;;;;;;;14.33;13.53;;;15.80;1.00;;;;;;5072064;28;20464;-71
2022/04/19 10:11:57;;;;;;;14.50;13.90;;;15.60;1.00;;;;;;5072220;28;20430;-71
2022/04/19 10:14:23;;;;;;;14.20;13.60;;;15.60;1.00;;;;;;5071938;28;20404;-72
2022/04/19 10:16:49;;;;;;;14.20;13.70;;;15.80;1.00;;;;;;5071541;28;20433;-72
2022/04/19 10:19:17;;;;;;;14.80;14.10;;;15.90;1.00;;;;;;5072130;28;20506;-72
2022/04/19 10:21:44;;;;;;;15.53;14.63;;;16.00;1.00;;;;;;5072257;28;20676;-72
2022/04/19 10:24:15;;;;;;;14.70;14.10;;;16.00;1.00;;;;;;5071808;28;20466;-72
2022/04/19 10:26:46;;;;;;;14.67;14.07;;;16.10;1.00;;;;;;5071494;28;20464;-72
2022/04/19 10:29:20;;;;;;;15.40;14.70;;;16.20;1.00;;;;;;5071820;28;20446;-71
2022/04/19 10:32:01;;;;;;;14.67;14.03;;;16.20;1.00;;;;;;5071627;28;20984;-72
2022/04/19 10:34:35;;;;;;;15.30;14.60;;;16.40;1.00;;;;;;5071802;28;20783;-72
2022/04/19 10:37:15;;;;;;;15.87;14.90;;;16.40;1.00;;;;;;5071522;28;20495;-72
2022/04/19 10:40:06;;;;;;;15.20;14.50;;;16.60;1.00;;;;;;5071806;28;20404;-72
2022/04/19 10:42:37;;;;;;;15.60;14.90;;;16.10;1.00;;;;;;5064085;28;20450;-72
2022/04/19 10:45:15;;;;;;;16.40;15.43;;;15.90;1.00;;;;;;5071630;28;20509;-72
2022/04/19 10:48:03;;;;;;;15.87;15.17;;;16.30;1.00;;;;;;5071447;28;20407;-73
2022/04/19 10:50:40;;;;;;;14.97;14.37;;;16.30;1.00;;;;;;5063701;28;20455;-72
2022/04/19 10:53:07;;;;;;;14.80;14.20;;;16.40;1.00;;;;;;5070442;28;20442;-72
2022/04/19 10:55:40;;;;;;;15.37;14.77;;;16.60;1.00;;;;;;5071575;28;20561;-71
2022/04/19 10:58:06;;;;;;;15.30;14.60;;;16.60;1.00;;;;;;5071146;28;20419;-72
2022/04/19 11:00:34;;;;;;;15.63;15.00;;;16.70;1.00;;;;;;5071276;28;20440;-71
2022/04/19 11:03:07;;;;;;;15.27;14.57;;;16.50;1.00;;;;;;5070050;28;20178;-71
2022/04/19 11:05:41;;;;;;;14.40;13.80;;;16.70;1.00;;;;;;5071416;28;20582;-72
2022/04/19 11:08:19;;;;;;;15.67;14.97;;;16.20;1.00;;;;;;5069784;28;20448;-72
2022/04/19 11:10:45;;;;;;;15.37;14.67;;;16.20;1.00;;;;;;5072991;28;20440;-71
2022/04/19 11:13:13;;;;;;;14.77;14.17;;;16.10;1.00;;;;;;5073634;28;20423;-71
2022/04/19 11:15:41;;;;;;;15.10;14.40;;;16.30;1.00;;;;;;5075311;28;20509;-72
2022/04/19 11:18:24;;;;;;;15.80;15.00;;;16.40;1.00;;;;;;5074503;28;20420;-71
2022/04/19 11:20:53;;;;;;;16.27;15.37;;;16.50;1.00;;;;;;5074813;28;20448;-71
2022/04/19 11:23:20;;;;;;;15.77;15.07;;;16.70;1.00;;;;;;5074788;28;20426;-71
2022/04/19 11:25:47;;;;;;;15.40;14.70;;;16.80;1.00;;;;;;5073269;28;20466;-71
2022/04/19 11:28:16;;;;;;;15.80;14.83;;;16.80;1.00;;;;;;5073097;28;20718;-71
2022/04/19 11:31:06;;;;;;;16.97;15.97;;;17.00;1.00;;;;;;5074749;28;20998;-67
2022/04/19 11:33:34;;;;;;;17.07;16.13;;;16.90;1.00;;;;;;5074442;28;20525;-69
2022/04/19 11:36:03;;;;;;;18.10;16.70;;;16.80;1.00;;;;;;5073118;28;20426;-68
2022/04/19 11:38:30;;;;;;;17.33;15.80;;;16.90;1.00;;;;;;5074175;28;20416;-71
2022/04/19 11:46:46;;;;;;;15.60;14.70;;;16.90;1.00;;;;;;5074088;28;20463;-69
2022/04/19 11:49:29;;;;;;;16.50;15.50;;;16.90;1.00;;;;;;5074357;28;20412;-69
2022/04/19 11:51:57;;;;;;;15.47;14.77;;;16.70;1.00;;;;;;5072915;28;20443;-69
2022/04/19 11:54:27;;;;;;;15.80;15.00;;;17.00;1.00;;;;;;5074211;28;20824;-69
2022/04/19 11:56:54;;;;;;;16.27;15.37;;;17.20;1.00;;;;;;5073666;28;20495;-69
2022/04/19 11:59:43;;;;;;;14.67;13.97;;;17.30;1.00;;;;;;5072876;28;20420;-69
2022/04/19 12:02:17;;;;;;;14.43;13.80;;;16.80;1.00;;;;;;5065809;28;20451;-69
2022/04/19 12:04:50;;;;;;;15.77;14.97;;;16.40;1.00;;;;;;5073990;28;20901;-69
2022/04/19 12:07:16;;;;;;;14.60;13.90;;;16.50;1.00;;;;;;5073675;28;20458;-69
2022/04/19 12:09:43;;;;;;;14.10;13.50;;;16.40;1.00;;;;;;5074100;28;20493;-69
2022/04/19 12:12:10;;;;;;;15.00;14.30;;;16.60;1.00;;;;;;5073900;28;20796;-69
2022/04/19 12:14:36;;;;;;;15.57;14.73;;;16.50;1.00;;;;;;5073889;28;20443;-70
2022/04/19 12:17:06;;;;;;;14.70;14.00;;;16.20;1.00;;;;;;5073641;28;20783;-69
2022/04/19 12:19:35;;;;;;;14.63;13.83;;;16.30;1.00;;;;;;5073860;28;20399;-71
2022/04/19 12:22:02;;;;;;;15.80;14.53;;;16.50;1.00;;;;;;5073046;28;20435;-72
2022/04/19 12:24:28;;;;;;;15.07;14.30;;;16.80;1.00;;;;;;5073681;28;20408;-72
2022/04/19 12:27:05;;;;;;;14.70;14.00;;;16.70;1.00;;;;;;5073249;28;20456;-72
2022/04/19 12:29:31;;;;;;;15.20;14.40;;;16.60;1.00;;;;;;5073525;28;20487;-72
2022/04/19 12:31:58;;;;;;;16.40;15.30;;;16.80;1.00;;;;;;5073463;28;20509;-72
2022/04/19 12:34:39;;;;;;;15.10;14.40;;;16.80;1.00;;;;;;5073324;28;20411;-72
2022/04/19 12:37:12;;;;;;;15.00;14.10;;;17.00;1.00;;;;;;5073027;28;20458;-72
2022/04/19 12:39:37;;;;;;;14.57;13.87;;;17.10;1.00;;;;;;5072002;28;20427;-72
2022/04/19 12:42:07;;;;;;;15.00;14.20;;;17.10;1.00;;;;;;5073146;28;20424;-72
2022/04/19 12:44:35;;;;;;;13.33;12.73;;;17.10;1.00;;;;;;5073334;28;20170;-72
2022/04/19 12:47:03;;;;;;;14.30;13.70;;;17.00;1.00;;;;;;5072886;28;20420;-72
2022/04/19 12:49:30;;;;;;;14.67;14.00;;;16.90;1.00;;;;;;5073291;28;20418;-72
2022/04/19 12:52:08;;;;;;;14.13;13.43;;;17.00;1.00;;;;;;5072919;28;20555;-72
2022/04/19 12:55:00;;;;;;;14.30;13.60;;;17.00;1.00;;;;;;5072968;28;20410;-72
2022/04/19 12:57:25;;;;;;;15.47;14.40;;;16.90;1.00;;;;;;5072661;28;20422;-72
2022/04/19 12:59:51;;;;;;;14.27;13.57;;;16.80;1.00;;;;;;5073101;28;20404;-72
2022/04/19 13:02:19;;;;;;;15.00;14.20;;;16.80;1.00;;;;;;5072734;28;20255;-72
2022/04/19 13:04:45;;;;;;;15.07;14.37;;;16.80;1.00;;;;;;5073090;28;20415;-72
2022/04/19 13:12:39;;;;;;;16.00;15.23;;;16.90;1.00;;;;;;5072722;28;20504;-73
2022/04/19 13:15:06;;;;;;;15.50;14.60;;;17.00;1.00;;;;;;5072881;28;20454;-73
2022/04/19 13:17:37;;;;;;;15.33;14.63;;;17.00;1.00;;;;;;5072229;28;20267;-72
2022/04/19 13:20:04;;;;;;;15.03;14.23;;;17.00;1.00;;;;;;5073149;28;20408;-73
2022/04/19 13:22:30;;;;;;;14.93;14.23;;;17.00;1.00;;;;;;5072369;28;20936;-73
2022/04/19 13:24:57;;;;;;;14.60;13.90;;;17.10;1.00;;;;;;5062439;28;20526;-69
2022/04/19 13:27:25;;;;;;;14.50;13.90;;;17.10;1.00;;;;;;5051862;28;20433;-69
2022/04/19 13:29:50;;;;;;;15.10;14.40;;;17.00;1.00;;;;;;5052176;28;20435;-69